Time;durP1;ratioP1;P1;durP2;ratioP2;P2;SDS_P1;SDS_P2;PMS_P1;PMS_P2;Temp;Humidity;BMP_temperature;BMP_pressure;BME280_temperature;BME280_humidity;BME280_pressure;Samples;Min_cycle;Max_cycle;Signal;HPM_P1;HPM_P2
2021/12/08 00:00:33;;;;;;;10.53;2.97;;;6.80;78.20;;;;;;5045470;28;20026;-72
2021/12/08 00:03:01;;;;;;;6.53;2.73;;;6.80;78.30;;;;;;5055950;28;20033;-73
2021/12/08 00:05:27;;;;;;;6.80;2.57;;;6.80;78.40;;;;;;5046577;28;20041;-72
2021/12/08 00:07:53;;;;;;;8.27;2.70;;;6.80;78.40;;;;;;5031869;28;20441;-73
2021/12/08 00:13:03;;;;;;;7.83;2.93;;;6.80;78.60;;;;;;5035035;28;20036;-72
2021/12/08 00:15:38;;;;;;;7.30;2.83;;;6.80;78.50;;;;;;5039374;28;20041;-72
2021/12/08 00:18:10;;;;;;;8.00;2.93;;;6.80;78.70;;;;;;5038784;28;20354;-73
2021/12/08 00:20:38;;;;;;;7.50;2.80;;;6.80;78.70;;;;;;5054917;28;20048;-73
2021/12/08 00:23:05;;;;;;;8.83;3.47;;;6.80;78.70;;;;;;5036288;28;20034;-72
2021/12/08 00:25:32;;;;;;;6.43;2.37;;;6.80;78.80;;;;;;5042717;28;20377;-72
2021/12/08 00:27:58;;;;;;;7.50;3.17;;;6.80;78.90;;;;;;5057651;28;20057;-73
2021/12/08 00:30:25;;;;;;;8.00;3.00;;;6.70;79.00;;;;;;5046996;28;20375;-73
2021/12/08 00:32:52;;;;;;;9.63;2.97;;;6.70;79.10;;;;;;5023224;28;20025;-73
2021/12/08 00:35:19;;;;;;;6.77;2.60;;;6.70;79.20;;;;;;5039941;28;20044;-73
2021/12/08 00:37:45;;;;;;;7.73;2.90;;;6.70;79.40;;;;;;5054657;28;20033;-73
2021/12/08 00:40:13;;;;;;;7.77;2.53;;;6.70;79.50;;;;;;5026726;28;20021;-73
2021/12/08 00:42:38;;;;;;;7.87;2.30;;;6.70;79.60;;;;;;5025845;28;20441;-73
2021/12/08 00:45:06;;;;;;;8.63;2.53;;;6.70;79.60;;;;;;5030346;28;20041;-73
2021/12/08 00:47:32;;;;;;;6.27;2.70;;;6.70;79.60;;;;;;5025004;28;20033;-73
2021/12/08 00:49:58;;;;;;;6.83;2.20;;;6.70;79.70;;;;;;5049137;28;20029;-73
2021/12/08 00:52:28;;;;;;;7.20;2.93;;;6.70;79.70;;;;;;5037052;28;20084;-73
2021/12/08 00:54:55;;;;;;;5.40;2.53;;;6.70;79.80;;;;;;5033562;28;20029;-73
2021/12/08 00:57:21;;;;;;;7.77;2.83;;;6.80;80.00;;;;;;5028374;28;20045;-73
2021/12/08 00:59:46;;;;;;;8.00;3.00;;;6.80;80.00;;;;;;5050708;28;20422;-73
2021/12/08 01:02:12;;;;;;;7.83;2.80;;;6.80;80.00;;;;;;5033278;28;20164;-73
2021/12/08 01:04:38;;;;;;;6.13;2.60;;;6.70;80.00;;;;;;5049592;28;20361;-73
2021/12/08 01:07:04;;;;;;;5.47;2.50;;;6.80;80.00;;;;;;5050776;28;20467;-73
2021/12/08 01:09:30;;;;;;;7.63;2.83;;;6.80;80.10;;;;;;5061471;28;20080;-73
2021/12/08 01:11:59;;;;;;;5.90;2.43;;;6.70;80.10;;;;;;5031255;28;20443;-73
2021/12/08 01:14:25;;;;;;;8.00;2.77;;;6.80;80.30;;;;;;5026648;28;20037;-73
2021/12/08 01:16:51;;;;;;;6.27;2.73;;;6.80;80.30;;;;;;5033234;28;20065;-73
2021/12/08 01:19:19;;;;;;;6.60;2.83;;;6.70;80.40;;;;;;5037320;28;20041;-73
2021/12/08 01:21:45;;;;;;;8.53;2.70;;;6.80;80.50;;;;;;5063970;28;20025;-73
2021/12/08 01:24:10;;;;;;;8.33;3.70;;;6.80;80.60;;;;;;5078004;28;20094;-73
2021/12/08 01:26:36;;;;;;;7.37;2.90;;;6.80;80.70;;;;;;5040883;28;20120;-73
2021/12/08 01:29:03;;;;;;;6.93;3.03;;;6.80;80.70;;;;;;5050374;28;20430;-73
2021/12/08 01:31:29;;;;;;;7.43;2.93;;;6.80;80.80;;;;;;5060018;28;20186;-73
2021/12/08 01:33:55;;;;;;;7.07;2.80;;;6.80;81.50;;;;;;5035373;28;20427;-73
2021/12/08 01:36:21;;;;;;;7.00;2.60;;;6.80;80.90;;;;;;5019291;28;20026;-73
2021/12/08 01:38:47;;;;;;;5.77;2.40;;;6.90;81.00;;;;;;5055818;28;20128;-73
2021/12/08 01:41:14;;;;;;;8.07;2.60;;;6.90;81.10;;;;;;5040467;28;20172;-73
2021/12/08 01:45:56;;;;;;;8.57;2.83;;;6.90;81.10;;;;;;5021420;28;20094;-73
2021/12/08 01:46:25;;;;;;;7.87;2.63;;;6.90;81.20;;;;;;5031935;28;20443;-73
2021/12/08 01:48:50;;;;;;;6.60;2.30;;;6.90;81.20;;;;;;5033568;28;20063;-73
2021/12/08 01:51:18;;;;;;;6.73;2.97;;;6.90;81.20;;;;;;5048415;28;20040;-73
2021/12/08 01:53:52;;;;;;;6.10;2.57;;;6.90;81.30;;;;;;5071393;28;20029;-73
2021/12/08 01:56:21;;;;;;;6.67;2.93;;;6.90;81.40;;;;;;5046256;28;20030;-73
2021/12/08 01:58:47;;;;;;;6.83;2.40;;;7.00;81.50;;;;;;5034866;28;20026;-73
2021/12/08 02:01:15;;;;;;;5.57;2.43;;;7.00;81.40;;;;;;5040909;28;20030;-73
2021/12/08 02:03:42;;;;;;;6.20;2.37;;;7.00;81.40;;;;;;5029287;28;20354;-73
2021/12/08 02:06:10;;;;;;;6.83;2.53;;;7.00;81.40;;;;;;5048703;28;20033;-73
2021/12/08 02:08:37;;;;;;;7.17;2.50;;;7.00;81.50;;;;;;5017390;28;20117;-73
2021/12/08 02:11:04;;;;;;;5.27;2.17;;;7.10;81.60;;;;;;5043536;28;20087;-73
2021/12/08 02:13:36;;;;;;;4.57;2.47;;;7.10;81.70;;;;;;5033067;28;20053;-73
2021/12/08 02:16:03;;;;;;;7.83;2.07;;;7.10;81.70;;;;;;5066493;28;20041;-73
2021/12/08 02:18:29;;;;;;;7.27;2.97;;;7.10;81.70;;;;;;5041057;28;20044;-74
2021/12/08 02:21:05;;;;;;;7.83;2.50;;;7.10;81.70;;;;;;5048534;28;20123;-73
2021/12/08 02:23:31;;;;;;;4.63;2.10;;;7.20;81.80;;;;;;5059807;28;20029;-73
2021/12/08 02:25:58;;;;;;;5.43;2.40;;;7.20;81.70;;;;;;5055156;28;20040;-73
2021/12/08 02:28:24;;;;;;;4.70;2.07;;;7.20;81.80;;;;;;5032909;28;20029;-73
2021/12/08 02:31:00;;;;;;;7.83;2.50;;;7.20;81.80;;;;;;5053005;28;20056;-73
2021/12/08 02:47:27;;;;;;;6.13;2.67;;;7.30;82.00;;;;;;5022298;28;20037;-73
2021/12/08 02:49:53;;;;;;;5.10;2.27;;;7.30;82.00;;;;;;5039850;28;20052;-73
2021/12/08 02:52:19;;;;;;;5.50;2.10;;;7.40;82.10;;;;;;5026372;28;20467;-73
2021/12/08 02:54:48;;;;;;;6.43;2.20;;;7.40;82.10;;;;;;5035926;28;20036;-73
2021/12/08 02:57:15;;;;;;;4.97;2.03;;;7.40;82.10;;;;;;5029429;28;20053;-73
2021/12/08 02:59:42;;;;;;;4.00;1.80;;;7.50;82.30;;;;;;5016538;28;20040;-73
2021/12/08 03:02:08;;;;;;;5.90;2.30;;;7.50;82.30;;;;;;5016894;28;20367;-73
2021/12/08 03:04:34;;;;;;;6.00;2.33;;;7.50;82.30;;;;;;5016432;28;20040;-73
2021/12/08 03:07:00;;;;;;;7.40;2.60;;;7.50;82.40;;;;;;5049236;28;20061;-73
2021/12/08 03:09:26;;;;;;;6.83;2.20;;;7.60;82.40;;;;;;5041752;28;20469;-73
2021/12/08 03:11:55;;;;;;;6.17;2.67;;;7.60;82.50;;;;;;5040850;28;20033;-73
2021/12/08 03:14:21;;;;;;;6.03;2.50;;;7.60;82.50;;;;;;5048339;28;20045;-73
2021/12/08 03:16:52;;;;;;;7.83;2.70;;;7.60;82.50;;;;;;5035796;28;20021;-73
2021/12/08 03:19:20;;;;;;;4.07;1.80;;;7.60;82.60;;;;;;5016464;28;20049;-73
2021/12/08 03:21:46;;;;;;;10.10;2.57;;;7.60;82.60;;;;;;5032765;28;20042;-73
2021/12/08 03:24:23;;;;;;;6.10;2.00;;;7.60;82.60;;;;;;5034884;28;20447;-73
2021/12/08 03:29:57;;;;;;;5.53;2.30;;;7.60;82.70;;;;;;5022988;28;20175;-73
2021/12/08 03:32:33;;;;;;;5.70;2.10;;;7.60;82.70;;;;;;5033430;28;20049;-73
2021/12/08 03:34:59;;;;;;;7.70;2.67;;;7.60;82.80;;;;;;5014882;28;20040;-73
2021/12/08 03:37:32;;;;;;;7.63;2.37;;;7.60;82.90;;;;;;5034529;28;20048;-73
2021/12/08 03:40:00;;;;;;;5.70;1.90;;;7.60;83.00;;;;;;5067915;28;20056;-73
2021/12/08 03:42:28;;;;;;;6.73;2.03;;;7.60;83.00;;;;;;5033375;28;20032;-73
2021/12/08 03:44:57;;;;;;;4.80;1.90;;;7.60;83.00;;;;;;5036223;28;20034;-73
2021/12/08 03:47:28;;;;;;;5.47;1.47;;;7.60;83.00;;;;;;5033367;28;20080;-73
2021/12/08 03:49:57;;;;;;;6.00;2.22;;;7.60;83.00;;;;;;5023687;28;20121;-73
2021/12/08 03:52:24;;;;;;;7.23;2.00;;;7.70;83.00;;;;;;5045494;28;20029;-73
2021/12/08 03:54:49;;;;;;;7.93;2.10;;;7.70;83.00;;;;;;5035832;28;20025;-73
2021/12/08 03:57:15;;;;;;;7.30;1.83;;;7.70;82.90;;;;;;5037624;28;20045;-73
2021/12/08 03:59:41;;;;;;;6.87;2.03;;;7.80;83.00;;;;;;5062982;28;20041;-73
2021/12/08 04:02:06;;;;;;;4.33;1.50;;;7.80;82.90;;;;;;5037277;28;20421;-73
2021/12/08 04:04:41;;;;;;;4.23;1.60;;;7.80;82.90;;;;;;5014704;28;20069;-73
2021/12/08 04:07:08;;;;;;;6.13;2.27;;;7.80;82.80;;;;;;5056991;28;20458;-74
2021/12/08 04:09:44;;;;;;;6.47;1.67;;;7.90;82.80;;;;;;5034103;28;20362;-73
2021/12/08 04:12:13;;;;;;;4.73;1.60;;;7.90;82.70;;;;;;5038140;28;20041;-73
2021/12/08 04:14:46;;;;;;;7.10;1.80;;;7.90;82.70;;;;;;5038368;28;20025;-73
2021/12/08 04:17:35;;;;;;;7.37;1.93;;;7.90;82.70;;;;;;5044658;28;20078;-74
2021/12/08 04:20:23;;;;;;;5.33;1.70;;;7.90;82.60;;;;;;5035337;28;20034;-73
2021/12/08 04:22:52;;;;;;;6.03;1.80;;;8.00;82.60;;;;;;5038004;28;20091;-73
2021/12/08 04:25:22;;;;;;;4.10;1.50;;;8.00;82.60;;;;;;5030697;28;20034;-73
2021/12/08 04:27:49;;;;;;;6.17;1.93;;;8.00;82.50;;;;;;5015980;28;20030;-73
2021/12/08 04:30:31;;;;;;;5.53;1.63;;;8.00;82.50;;;;;;5030607;28;20490;-73
2021/12/08 04:32:57;;;;;;;;;;;8.00;82.50;;;;;;5036565;28;20065;-73
2021/12/08 04:35:24;;;;;;;5.90;1.67;;;8.00;82.40;;;;;;5023693;28;20297;-73
2021/12/08 04:37:53;;;;;;;7.13;1.70;;;8.00;82.40;;;;;;5035588;28;20120;-73
2021/12/08 04:41:01;;;;;;;6.80;1.70;;;8.00;82.40;;;;;;5013983;28;20075;-73
2021/12/08 04:43:53;;;;;;;4.97;1.60;;;8.10;82.40;;;;;;5047758;28;20025;-73
2021/12/08 04:52:25;;;;;;;5.27;1.70;;;8.10;82.30;;;;;;5025145;28;20422;-73
2021/12/08 05:01:10;;;;;;;8.40;2.10;;;8.10;82.10;;;;;;5040414;28;20040;-73
2021/12/08 05:06:05;;;;;;;6.87;1.87;;;8.00;82.00;;;;;;5034634;28;20033;-73
2021/12/08 05:08:41;;;;;;;5.67;1.80;;;8.00;81.90;;;;;;5035192;28;20466;-73
2021/12/08 05:11:37;;;;;;;6.00;1.73;;;7.90;81.80;;;;;;5023120;28;20021;-73
2021/12/08 05:14:12;;;;;;;6.53;1.80;;;8.00;81.70;;;;;;5046883;28;20034;-73
2021/12/08 05:16:42;;;;;;;3.90;1.50;;;7.90;81.60;;;;;;5055490;28;20028;-74
2021/12/08 05:19:11;;;;;;;6.00;1.70;;;7.90;81.60;;;;;;5025947;28;20036;-73
2021/12/08 05:21:51;;;;;;;5.87;2.20;;;7.90;81.50;;;;;;5026749;28;20030;-73
2021/12/08 05:24:27;;;;;;;7.57;1.90;;;7.90;81.30;;;;;;5048286;28;20043;-73
2021/12/08 05:27:02;;;;;;;5.37;1.90;;;7.90;81.30;;;;;;5033290;28;20356;-73
2021/12/08 05:29:39;;;;;;;7.73;1.87;;;7.90;81.20;;;;;;5065415;28;20347;-73
2021/12/08 05:32:05;;;;;;;5.23;1.53;;;7.90;81.20;;;;;;5032970;28;20115;-73
2021/12/08 05:34:32;;;;;;;4.97;1.93;;;7.90;81.20;;;;;;5033469;28;20029;-73
2021/12/08 05:36:59;;;;;;;5.77;1.77;;;7.90;81.10;;;;;;5029223;28;20108;-73
2021/12/08 05:39:27;;;;;;;6.00;1.63;;;7.90;81.10;;;;;;5049340;28;20044;-73
2021/12/08 05:41:59;;;;;;;5.97;1.83;;;7.90;81.10;;;;;;5025001;28;20061;-73
2021/12/08 05:44:25;;;;;;;7.97;1.90;;;7.90;81.10;;;;;;5049312;28;20036;-73
2021/12/08 05:46:54;;;;;;;7.87;1.93;;;7.80;81.10;;;;;;5027047;28;20058;-73
2021/12/08 05:49:20;;;;;;;7.27;2.00;;;7.80;81.00;;;;;;5042502;28;20073;-73
2021/12/08 05:51:49;;;;;;;7.90;2.00;;;7.80;81.00;;;;;;5026806;28;20467;-72
2021/12/08 05:54:32;;;;;;;3.43;1.60;;;7.80;80.90;;;;;;5030319;28;20412;-74
2021/12/08 05:57:07;;;;;;;5.57;2.00;;;7.80;81.00;;;;;;5029602;28;20034;-74
2021/12/08 05:59:34;;;;;;;5.67;1.60;;;7.80;80.90;;;;;;5052829;28;20057;-73
2021/12/08 06:02:14;;;;;;;6.97;1.47;;;7.80;80.90;;;;;;5031342;28;20037;-73
2021/12/08 06:04:40;;;;;;;5.80;1.70;;;7.80;80.80;;;;;;5050541;28;20128;-73
2021/12/08 06:07:07;;;;;;;7.23;1.70;;;7.80;80.80;;;;;;5047866;28;20030;-73
2021/12/08 06:09:35;;;;;;;5.70;1.77;;;7.80;80.70;;;;;;5043531;28;20511;-73
2021/12/08 06:12:02;;;;;;;5.00;1.53;;;7.70;80.60;;;;;;5050671;28;20030;-74
2021/12/08 06:14:32;;;;;;;5.90;2.00;;;7.70;80.60;;;;;;5053754;28;20472;-73
2021/12/08 06:17:07;;;;;;;5.83;1.53;;;7.70;80.50;;;;;;5019829;28;20096;-73
2021/12/08 06:19:36;;;;;;;5.37;1.80;;;7.70;80.50;;;;;;5051145;28;20107;-73
2021/12/08 06:22:02;;;;;;;4.80;1.50;;;7.70;80.40;;;;;;5021731;28;20068;-73
2021/12/08 06:24:28;;;;;;;9.70;1.70;;;7.70;80.40;;;;;;5069424;28;20033;-73
2021/12/08 06:26:54;;;;;;;8.90;1.60;;;7.70;80.30;;;;;;5042264;28;20038;-73
2021/12/08 06:29:20;;;;;;;6.03;1.50;;;7.70;80.90;;;;;;5036789;28;20443;-73
2021/12/08 06:31:49;;;;;;;6.70;1.47;;;7.70;80.10;;;;;;5046257;28;20042;-73
2021/12/08 06:34:16;;;;;;;6.40;1.80;;;7.70;79.90;;;;;;5016856;28;20029;-73
2021/12/08 06:36:52;;;;;;;6.43;2.00;;;7.70;79.80;;;;;;5036059;28;20047;-73
2021/12/08 06:39:22;;;;;;;4.87;1.20;;;7.70;80.30;;;;;;5049025;28;20041;-73
2021/12/08 06:41:54;;;;;;;4.70;1.37;;;7.70;79.70;;;;;;5043774;28;20377;-73
2021/12/08 06:44:24;;;;;;;4.77;1.33;;;7.60;79.50;;;;;;5021546;28;20034;-73
2021/12/08 06:46:52;;;;;;;5.50;1.63;;;7.60;79.50;;;;;;5035417;28;20041;-73
2021/12/08 06:49:20;;;;;;;6.87;2.03;;;7.70;79.50;;;;;;5048371;28;20443;-73
2021/12/08 06:52:04;;;;;;;6.00;1.40;;;7.70;79.30;;;;;;5024818;28;20363;-73
2021/12/08 06:54:35;;;;;;;8.60;1.67;;;7.70;79.20;;;;;;5068803;28;20112;-73
2021/12/08 06:57:07;;;;;;;6.93;1.53;;;7.70;79.20;;;;;;5030889;28;20032;-73
2021/12/08 06:59:40;;;;;;;5.87;2.03;;;7.70;79.20;;;;;;5048583;28;20422;-73
2021/12/08 07:02:14;;;;;;;8.00;1.70;;;7.70;79.10;;;;;;5034629;28;20036;-74
2021/12/08 07:07:20;;;;;;;6.90;1.80;;;7.80;78.90;;;;;;5029557;28;20065;-72
2021/12/08 07:09:59;;;;;;;7.67;1.50;;;7.80;78.70;;;;;;5031597;28;20033;-72
2021/12/08 07:12:44;;;;;;;5.17;1.83;;;7.90;78.40;;;;;;5019111;28;20036;-73
2021/12/08 07:15:17;;;;;;;6.17;1.70;;;7.90;78.30;;;;;;5025420;28;20441;-72
2021/12/08 07:17:50;;;;;;;7.30;1.50;;;7.80;78.30;;;;;;5019435;28;20029;-72
2021/12/08 07:23:05;;;;;;;9.87;1.93;;;7.80;78.30;;;;;;5048513;28;20021;-72
2021/12/08 07:25:33;;;;;;;8.10;1.73;;;7.70;78.20;;;;;;5038398;28;20034;-72
2021/12/08 07:28:00;;;;;;;5.50;1.60;;;7.70;78.20;;;;;;5051567;28;20124;-74
2021/12/08 07:30:41;;;;;;;7.93;2.00;;;7.70;78.20;;;;;;5052514;28;20040;-71
2021/12/08 07:33:07;;;;;;;8.95;2.42;;;7.70;78.10;;;;;;5029198;28;20022;-72
2021/12/08 07:35:42;;;;;;;6.93;1.83;;;7.70;78.10;;;;;;5050643;28;20032;-73
2021/12/08 07:38:13;;;;;;;8.67;2.10;;;7.70;77.90;;;;;;5035846;28;20033;-72
2021/12/08 07:40:43;;;;;;;;;;;7.70;77.90;;;;;;5033553;28;20084;-72
2021/12/08 07:43:13;;;;;;;6.87;1.77;;;7.70;78.00;;;;;;5030077;28;19967;-71
2021/12/08 07:45:50;;;;;;;11.13;2.43;;;7.60;77.90;;;;;;5027756;28;20029;-72
2021/12/08 07:48:22;;;;;;;5.10;1.87;;;7.60;77.80;;;;;;5027266;28;20359;-71
2021/12/08 07:50:54;;;;;;;8.07;1.93;;;7.60;77.80;;;;;;5032562;28;20021;-70
2021/12/08 07:53:23;;;;;;;6.45;2.58;;;7.60;77.70;;;;;;5033749;28;20029;-74
2021/12/08 07:55:54;;;;;;;7.43;2.00;;;7.60;77.60;;;;;;5017940;28;20025;-74
2021/12/08 07:58:21;;;;;;;6.65;2.20;;;7.60;77.50;;;;;;5030733;28;20030;-74
2021/12/08 08:00:57;;;;;;;6.33;1.73;;;7.60;77.50;;;;;;5032542;28;20482;-73
2021/12/08 08:03:26;;;;;;;7.67;2.10;;;7.60;77.40;;;;;;5048043;28;20029;-71
2021/12/08 08:05:53;;;;;;;7.67;2.17;;;7.60;77.40;;;;;;5012807;28;20041;-72
2021/12/08 08:08:21;;;;;;;11.57;2.03;;;7.60;77.40;;;;;;5037325;28;20025;-72
2021/12/08 08:10:58;;;;;;;6.73;1.93;;;7.60;77.30;;;;;;5020763;28;20030;-72
2021/12/08 08:13:24;;;;;;;7.63;2.03;;;7.60;77.30;;;;;;5033759;28;20026;-73
2021/12/08 08:15:56;;;;;;;6.63;2.13;;;7.60;77.30;;;;;;5032266;28;20458;-73
2021/12/08 08:18:26;;;;;;;8.43;2.17;;;7.60;77.50;;;;;;5037317;28;20038;-73
2021/12/08 08:20:57;;;;;;;7.73;1.97;;;7.60;77.10;;;;;;5045712;28;20037;-73
2021/12/08 08:23:25;;;;;;;7.20;2.28;;;7.60;77.10;;;;;;5047829;28;20033;-73
2021/12/08 08:25:53;;;;;;;10.67;2.40;;;7.60;77.10;;;;;;5047142;28;20407;-73
2021/12/08 08:28:19;;;;;;;9.60;2.53;;;7.60;77.10;;;;;;5014546;28;20026;-73
2021/12/08 08:30:54;;;;;;;7.13;2.40;;;7.60;77.00;;;;;;5023263;28;20068;-73
2021/12/08 08:33:20;;;;;;;10.20;2.90;;;7.70;77.00;;;;;;5054640;28;20029;-74
2021/12/08 08:35:53;;;;;;;9.97;2.73;;;7.70;76.90;;;;;;5052642;28;20028;-74
2021/12/08 08:38:23;;;;;;;11.17;2.50;;;7.70;76.80;;;;;;5047735;28;20031;-74
2021/12/08 08:40:56;;;;;;;9.33;2.43;;;7.70;76.70;;;;;;5033471;28;20037;-73
2021/12/08 08:43:23;;;;;;;7.47;2.00;;;7.70;76.70;;;;;;5034504;28;20473;-73
2021/12/08 08:45:57;;;;;;;11.93;2.40;;;7.70;76.70;;;;;;5034539;28;20033;-74
2021/12/08 08:48:28;;;;;;;10.07;3.17;;;7.70;76.60;;;;;;5043470;28;20339;-73
2021/12/08 08:51:21;;;;;;;8.95;2.30;;;7.80;76.60;;;;;;5053215;28;20033;-73
2021/12/08 08:53:50;;;;;;;6.77;2.07;;;7.70;76.40;;;;;;5051210;28;20037;-73
2021/12/08 08:56:29;;;;;;;6.10;2.30;;;7.70;76.50;;;;;;5052938;28;20029;-74
2021/12/08 08:59:00;;;;;;;8.67;1.97;;;7.70;76.40;;;;;;5037453;28;20449;-73
2021/12/08 09:01:36;;;;;;;8.75;2.00;;;7.80;76.50;;;;;;5053290;28;20029;-73
2021/12/08 09:04:22;;;;;;;8.33;2.10;;;7.80;76.30;;;;;;5046728;28;20037;-74
2021/12/08 09:06:53;;;;;;;7.83;1.80;;;7.70;76.20;;;;;;5054264;28;20060;-73
2021/12/08 09:09:23;;;;;;;8.47;1.87;;;7.80;76.10;;;;;;5054439;28;20394;-74
2021/12/08 09:12:11;;;;;;;6.83;1.73;;;7.80;75.90;;;;;;5054548;28;20029;-73
2021/12/08 09:14:49;;;;;;;10.47;1.60;;;7.90;75.80;;;;;;5053359;28;20116;-75
2021/12/08 09:17:19;;;;;;;7.43;2.03;;;7.90;75.70;;;;;;5052608;28;20044;-73
2021/12/08 09:19:59;;;;;;;6.90;2.07;;;7.90;75.40;;;;;;5005865;28;20169;-74
2021/12/08 09:22:54;;;;;;;6.53;1.77;;;8.00;75.20;;;;;;5041965;28;20034;-74
2021/12/08 09:25:34;;;;;;;6.30;1.70;;;8.10;75.10;;;;;;5013840;28;20052;-72
2021/12/08 09:28:07;;;;;;;6.53;1.90;;;8.10;74.90;;;;;;5032788;28;20521;-72
2021/12/08 09:30:42;;;;;;;6.83;1.70;;;8.10;74.70;;;;;;5013146;28;20424;-71
2021/12/08 09:33:24;;;;;;;7.90;1.90;;;8.10;74.40;;;;;;5031454;28;20041;-73
2021/12/08 09:35:55;;;;;;;6.45;1.65;;;8.20;74.40;;;;;;5034524;28;20030;-71
2021/12/08 09:38:31;;;;;;;4.38;2.08;;;8.20;74.20;;;;;;5016839;28;20044;-72
2021/12/08 09:41:03;;;;;;;6.87;2.20;;;8.30;74.10;;;;;;5026656;28;20140;-72
2021/12/08 09:44:07;;;;;;;7.13;2.27;;;8.30;74.00;;;;;;5029616;28;20044;-70
2021/12/08 09:46:40;;;;;;;7.20;1.90;;;8.40;73.90;;;;;;5009084;28;20044;-71
2021/12/08 09:49:07;;;;;;;5.83;2.00;;;8.30;73.90;;;;;;5037015;28;20116;-71
2021/12/08 09:51:34;;;;;;;7.57;2.37;;;8.30;73.80;;;;;;5042055;28;20095;-71
2021/12/08 09:54:00;;;;;;;9.30;2.13;;;8.40;73.70;;;;;;5030153;28;20435;-74
2021/12/08 09:56:30;;;;;;;7.07;2.10;;;8.50;73.50;;;;;;5019979;28;20029;-74
2021/12/08 09:58:57;;;;;;;6.80;2.03;;;8.60;73.10;;;;;;5061573;28;20032;-75
2021/12/08 10:01:24;;;;;;;8.77;2.10;;;8.70;72.90;;;;;;5031101;28;20086;-75
2021/12/08 10:03:52;;;;;;;5.90;1.93;;;8.90;72.50;;;;;;5039608;28;20071;-76
2021/12/08 10:06:20;;;;;;;5.63;2.10;;;9.10;72.20;;;;;;5072643;28;20040;-76
2021/12/08 10:08:47;;;;;;;8.73;1.93;;;9.20;71.70;;;;;;5038732;28;20034;-76
2021/12/08 10:11:14;;;;;;;8.53;1.90;;;9.40;71.40;;;;;;5037081;28;20049;-75
2021/12/08 10:13:41;;;;;;;6.53;1.73;;;9.50;70.90;;;;;;5039616;28;20068;-75
2021/12/08 10:16:07;;;;;;;7.13;1.97;;;9.50;70.70;;;;;;5034903;28;20029;-75
2021/12/08 10:18:33;;;;;;;8.35;1.90;;;9.60;70.70;;;;;;5021685;28;20061;-75
2021/12/08 10:21:00;;;;;;;7.80;1.80;;;9.60;70.50;;;;;;5017313;28;20084;-75
2021/12/08 10:23:28;;;;;;;5.67;1.80;;;9.40;70.50;;;;;;5034906;28;20036;-75
2021/12/08 10:25:59;;;;;;;4.97;1.80;;;9.50;70.60;;;;;;5017046;28;20183;-75
2021/12/08 10:28:46;;;;;;;5.88;2.00;;;9.60;70.40;;;;;;5047390;28;20033;-75
2021/12/08 10:31:19;;;;;;;7.80;1.87;;;9.70;70.00;;;;;;5035861;28;20132;-74
2021/12/08 10:34:10;;;;;;;4.65;1.70;;;9.90;69.80;;;;;;5034946;28;20038;-76
2021/12/08 10:39:12;;;;;;;4.72;1.52;;;10.00;69.20;;;;;;5041208;28;20158;-75
2021/12/08 10:42:13;;;;;;;5.30;1.48;;;10.10;69.00;;;;;;5017200;28;20539;-75
2021/12/08 10:45:15;;;;;;;7.00;2.13;;;10.20;68.90;;;;;;5041714;28;20045;-74
2021/12/08 10:47:51;;;;;;;8.43;2.72;;;10.30;68.40;;;;;;5016894;28;20054;-75
2021/12/08 10:56:08;;;;;;;7.40;1.83;;;10.50;67.70;;;;;;5036516;28;20037;-75
2021/12/08 10:58:39;;;;;;;5.80;2.05;;;10.60;67.70;;;;;;5018020;28;20064;-74
2021/12/08 11:01:09;;;;;;;8.02;1.70;;;10.60;67.60;;;;;;5041187;28;20099;-75
2021/12/08 11:03:36;;;;;;;6.15;1.60;;;10.60;67.30;;;;;;5048774;28;20029;-75
2021/12/08 11:06:04;;;;;;;5.25;1.73;;;10.60;67.30;;;;;;5034153;28;20052;-75
2021/12/08 11:08:32;;;;;;;4.10;1.38;;;10.60;67.10;;;;;;5035076;28;20373;-74
2021/12/08 11:11:12;;;;;;;6.10;1.70;;;10.60;67.20;;;;;;5035842;28;20052;-75
2021/12/08 11:13:44;;;;;;;6.20;1.65;;;10.50;66.90;;;;;;5035091;28;20036;-75
2021/12/08 11:16:19;;;;;;;6.13;1.77;;;10.50;67.10;;;;;;5016189;28;20348;-74
2021/12/08 11:18:49;;;;;;;5.68;1.45;;;10.40;67.20;;;;;;5048432;28;20362;-75
2021/12/08 11:21:31;;;;;;;6.35;1.67;;;10.40;67.40;;;;;;5034950;28;20076;-73
2021/12/08 11:23:59;;;;;;;7.88;2.20;;;10.30;67.30;;;;;;5015923;28;20068;-75
2021/12/08 11:26:26;;;;;;;6.43;1.40;;;10.20;67.60;;;;;;5067326;28;20083;-72
2021/12/08 11:28:53;;;;;;;6.18;1.77;;;10.10;67.70;;;;;;5015602;28;20037;-72
2021/12/08 11:31:19;;;;;;;5.82;1.80;;;10.00;67.80;;;;;;5033995;28;20061;-72
2021/12/08 11:33:54;;;;;;;4.43;1.67;;;10.00;68.00;;;;;;5057698;28;20049;-72
2021/12/08 11:36:22;;;;;;;7.15;2.03;;;9.90;68.00;;;;;;5030944;28;20018;-71
2021/12/08 11:38:49;;;;;;;8.27;2.95;;;9.90;68.20;;;;;;5054412;28;20056;-72
2021/12/08 11:41:24;;;;;;;8.23;2.00;;;9.80;68.20;;;;;;5033368;28;20025;-73
2021/12/08 11:43:52;;;;;;;6.72;1.75;;;9.70;68.30;;;;;;5032537;28;20033;-73
2021/12/08 11:46:19;;;;;;;4.25;1.88;;;9.70;68.40;;;;;;5031039;28;20045;-75
2021/12/08 11:48:58;;;;;;;5.43;1.95;;;9.70;68.30;;;;;;5059340;28;20033;-75
2021/12/08 11:51:24;;;;;;;5.10;1.40;;;9.60;68.30;;;;;;5018464;28;20041;-74
2021/12/08 11:53:50;;;;;;;7.22;2.05;;;9.50;68.50;;;;;;5031303;28;20092;-73
2021/12/08 11:56:36;;;;;;;5.53;1.88;;;9.50;68.70;;;;;;5032863;28;20037;-74
2021/12/08 11:59:04;;;;;;;4.32;1.60;;;9.50;68.60;;;;;;5028922;28;20033;-73
2021/12/08 12:01:30;;;;;;;5.25;2.00;;;9.40;68.80;;;;;;5015935;28;20121;-75
2021/12/08 12:03:56;;;;;;;3.63;1.48;;;9.40;68.80;;;;;;5048185;28;20119;-74
2021/12/08 12:06:27;;;;;;;6.07;1.70;;;9.40;68.90;;;;;;5032854;28;20044;-74
2021/12/08 12:08:55;;;;;;;6.70;1.90;;;9.30;68.90;;;;;;5015402;28;20030;-76
2021/12/08 12:11:25;;;;;;;7.38;1.67;;;9.30;68.90;;;;;;5057745;28;20095;-76
2021/12/08 12:13:52;;;;;;;5.38;1.63;;;9.30;69.00;;;;;;5018394;28;20029;-75
2021/12/08 12:16:17;;;;;;;5.10;1.63;;;9.30;69.10;;;;;;5033418;28;20028;-74
2021/12/08 12:18:43;;;;;;;5.97;2.13;;;9.30;69.10;;;;;;5019951;28;20029;-74
2021/12/08 12:21:23;;;;;;;6.70;2.10;;;9.20;69.20;;;;;;5034178;28;20520;-73
2021/12/08 12:24:12;;;;;;;6.85;1.80;;;9.20;69.20;;;;;;5030844;28;20139;-73
2021/12/08 12:27:03;;;;;;;8.00;2.15;;;9.20;69.90;;;;;;5025359;28;20095;-74
2021/12/08 12:30:01;;;;;;;6.93;2.03;;;9.10;69.30;;;;;;5032702;28;20029;-74
2021/12/08 12:32:36;;;;;;;6.68;2.00;;;9.10;69.30;;;;;;5027254;28;20030;-74
2021/12/08 12:35:15;;;;;;;4.70;1.60;;;9.10;69.40;;;;;;5005042;28;20034;-74
2021/12/08 12:37:41;;;;;;;5.93;1.70;;;9.10;69.40;;;;;;5014903;28;20041;-74
2021/12/08 12:40:19;;;;;;;4.85;1.77;;;9.10;69.50;;;;;;5047054;28;20061;-74
2021/12/08 12:42:48;;;;;;;6.45;1.80;;;9.10;69.40;;;;;;5015022;28;20364;-74
2021/12/08 12:45:15;;;;;;;12.07;2.28;;;9.10;69.50;;;;;;5040572;28;20366;-74
2021/12/08 12:47:42;;;;;;;3.95;1.58;;;9.10;69.50;;;;;;5053441;28;20036;-74
2021/12/08 12:50:15;;;;;;;5.97;2.03;;;9.10;69.50;;;;;;5038948;28;20379;-74
2021/12/08 12:52:51;;;;;;;8.75;2.72;;;9.20;69.50;;;;;;5014811;28;20044;-74
2021/12/08 12:55:22;;;;;;;8.43;2.00;;;9.10;69.40;;;;;;5054022;28;20071;-74
2021/12/08 12:58:09;;;;;;;5.45;2.00;;;9.10;69.30;;;;;;5064456;28;20060;-74
2021/12/08 13:01:09;;;;;;;4.90;2.15;;;9.10;69.30;;;;;;5020152;28;20030;-74
2021/12/08 13:03:48;;;;;;;4.78;1.65;;;9.20;69.40;;;;;;5013869;28;20033;-74
2021/12/08 13:06:37;;;;;;;7.18;1.90;;;9.20;69.30;;;;;;5062751;28;20033;-74
2021/12/08 13:09:04;;;;;;;4.50;1.55;;;9.10;69.30;;;;;;5050439;28;20026;-74
2021/12/08 13:11:34;;;;;;;7.72;2.60;;;9.20;69.40;;;;;;5034271;28;20070;-72
2021/12/08 13:14:03;;;;;;;5.22;1.95;;;9.20;69.30;;;;;;5029285;28;20470;-72
2021/12/08 13:16:35;;;;;;;5.40;1.75;;;9.10;69.20;;;;;;5036152;28;20029;-75
2021/12/08 13:19:06;;;;;;;6.50;2.22;;;9.10;69.80;;;;;;5038144;28;20111;-75
2021/12/08 13:21:45;;;;;;;8.02;1.90;;;9.10;69.20;;;;;;5052170;28;20037;-72
2021/12/08 13:24:40;;;;;;;8.25;2.25;;;9.20;69.20;;;;;;5026486;28;20045;-72
2021/12/08 13:27:10;;;;;;;5.63;2.20;;;9.10;69.30;;;;;;5049014;28;20116;-73
2021/12/08 13:29:40;;;;;;;6.28;2.13;;;9.10;69.40;;;;;;5040652;28;20040;-73
2021/12/08 13:32:12;;;;;;;5.07;1.80;;;9.10;69.40;;;;;;5054787;28;20042;-73
2021/12/08 13:34:42;;;;;;;4.53;1.63;;;9.10;69.30;;;;;;5023144;28;20423;-75
2021/12/08 13:37:20;;;;;;;5.57;1.88;;;9.10;69.40;;;;;;5050260;28;20029;-73
2021/12/08 13:39:49;;;;;;;7.72;2.05;;;9.10;69.30;;;;;;5023015;28;20041;-74
2021/12/08 13:42:29;;;;;;;4.90;1.53;;;9.10;69.30;;;;;;5022731;28;20037;-74
2021/12/08 13:45:03;;;;;;;7.60;1.73;;;9.10;69.30;;;;;;5067677;28;20093;-74
2021/12/08 13:47:36;;;;;;;10.13;2.33;;;9.10;69.30;;;;;;5037795;28;20047;-75
2021/12/08 13:50:12;;;;;;;5.60;1.75;;;9.10;69.30;;;;;;5065943;28;20363;-72
2021/12/08 13:52:41;;;;;;;5.47;1.70;;;9.10;69.40;;;;;;5063522;28;20040;-72
2021/12/08 13:55:14;;;;;;;6.72;1.90;;;9.20;69.50;;;;;;5033728;28;20026;-74
2021/12/08 13:57:47;;;;;;;5.55;1.60;;;9.20;69.40;;;;;;5068174;28;20041;-74
2021/12/08 14:00:16;;;;;;;6.93;2.10;;;9.20;69.30;;;;;;5034912;28;20041;-72
2021/12/08 14:03:07;;;;;;;7.60;1.60;;;9.20;69.20;;;;;;5036593;28;20036;-73
2021/12/08 14:05:47;;;;;;;9.45;1.83;;;9.20;69.20;;;;;;5039821;28;20025;-69